Yellow House, Pennsylvania
Current Conditions -  °F | °C
As of 8:54 AM on Wednesday 28 Jan 2015 (Local Time) from KPTW Reporting Station
Clear Clear  
Wind Chill:   Ceiling: Unl
Heat Index: 19°   Visibility: 10mi
Dew Point:   Wind: 13mph
Humidity: 43%   Direction: 320°NW
Pressure: 30.13"   Gusts: 18mph
Location:  40.2688°N, 75.7411°W
Report Text: KPTW 281354Z AUTO 32011G16KT 10SM CLR M07/M18 A3013 RMK AO2 SLP204 T10721178
Loading
Personal Weather Stations






























Interactive Weather Map New forecast layout! Learn more

10-Day Weather Forecast

Advertisements
Track Severe Weather on mobile